sensor_id;sensor_type;location;lat;lon;timestamp;temperature;humidity
59128;DHT22;44912;52.754;5.994;2023-04-01T00:00:55;10.70;99.90
59128;DHT22;44912;52.754;5.994;2023-04-01T00:03:21;10.70;99.90
59128;DHT22;44912;52.754;5.994;2023-04-01T00:05:47;10.70;99.90
59128;DHT22;44912;52.754;5.994;2023-04-01T00:08:13;10.70;99.90
59128;DHT22;44912;52.754;5.994;2023-04-01T00:10:39;10.70;99.90
59128;DHT22;44912;52.754;5.994;2023-04-01T00:13:05;10.70;99.90
59128;DHT22;44912;52.754;5.994;2023-04-01T00:15:31;10.70;99.90
59128;DHT22;44912;52.754;5.994;2023-04-01T00:17:56;10.70;99.90
59128;DHT22;44912;52.754;5.994;2023-04-01T00:20:22;10.70;99.90
59128;DHT22;44912;52.754;5.994;2023-04-01T00:22:47;10.70;99.90
59128;DHT22;44912;52.754;5.994;2023-04-01T00:25:13;10.70;99.90
59128;DHT22;44912;52.754;5.994;2023-04-01T00:27:40;10.70;99.90
59128;DHT22;44912;52.754;5.994;2023-04-01T00:30:06;10.70;99.90
59128;DHT22;44912;52.754;5.994;2023-04-01T00:32:31;10.70;99.90
59128;DHT22;44912;52.754;5.994;2023-04-01T00:34:57;10.70;99.90
59128;DHT22;44912;52.754;5.994;2023-04-01T00:37:25;10.70;99.90
59128;DHT22;44912;52.754;5.994;2023-04-01T00:39:51;10.70;99.90
59128;DHT22;44912;52.754;5.994;2023-04-01T00:42:16;10.80;99.90
59128;DHT22;44912;52.754;5.994;2023-04-01T00:44:42;10.70;99.90
59128;DHT22;44912;52.754;5.994;2023-04-01T00:47:08;10.70;99.90
59128;DHT22;44912;52.754;5.994;2023-04-01T00:49:37;10.70;99.90
59128;DHT22;44912;52.754;5.994;2023-04-01T00:52:05;10.70;99.90
59128;DHT22;44912;52.754;5.994;2023-04-01T00:54:34;10.70;99.90
59128;DHT22;44912;52.754;5.994;2023-04-01T00:57:27;10.80;99.90
59128;DHT22;44912;52.754;5.994;2023-04-01T00:59:55;10.70;99.90
59128;DHT22;44912;52.754;5.994;2023-04-01T01:02:23;10.70;99.90
59128;DHT22;44912;52.754;5.994;2023-04-01T01:04:48;10.70;99.90
59128;DHT22;44912;52.754;5.994;2023-04-01T01:15:38;10.70;99.90
59128;DHT22;44912;52.754;5.994;2023-04-01T01:23:54;10.70;99.90
59128;DHT22;44912;52.754;5.994;2023-04-01T01:37:19;10.80;99.90
59128;DHT22;44912;52.754;5.994;2023-04-01T01:39:49;10.80;99.90
59128;DHT22;44912;52.754;5.994;2023-04-01T01:42:16;10.80;99.90
59128;DHT22;44912;52.754;5.994;2023-04-01T01:44:45;10.70;99.90
59128;DHT22;44912;52.754;5.994;2023-04-01T01:47:13;10.70;99.90
59128;DHT22;44912;52.754;5.994;2023-04-01T01:49:41;10.80;99.90
59128;DHT22;44912;52.754;5.994;2023-04-01T01:52:07;10.80;99.90
59128;DHT22;44912;52.754;5.994;2023-04-01T01:54:33;10.80;99.90
59128;DHT22;44912;52.754;5.994;2023-04-01T01:57:06;10.80;99.90
59128;DHT22;44912;52.754;5.994;2023-04-01T01:59:33;10.80;99.90
59128;DHT22;44912;52.754;5.994;2023-04-01T02:02:01;10.80;99.90
59128;DHT22;44912;52.754;5.994;2023-04-01T02:04:40;10.80;99.90
59128;DHT22;44912;52.754;5.994;2023-04-01T02:07:15;10.80;99.90
59128;DHT22;44912;52.754;5.994;2023-04-01T02:09:42;10.80;99.90
59128;DHT22;44912;52.754;5.994;2023-04-01T02:12:11;10.80;99.90
59128;DHT22;44912;52.754;5.994;2023-04-01T02:15:04;10.80;99.90
59128;DHT22;44912;52.754;5.994;2023-04-01T02:17:32;10.80;99.90
59128;DHT22;44912;52.754;5.994;2023-04-01T02:20:00;10.80;99.90
59128;DHT22;44912;52.754;5.994;2023-04-01T02:22:31;10.80;99.90
59128;DHT22;44912;52.754;5.994;2023-04-01T02:25:03;10.80;99.90
59128;DHT22;44912;52.754;5.994;2023-04-01T02:27:30;10.80;99.90
59128;DHT22;44912;52.754;5.994;2023-04-01T02:29:56;10.80;99.90
59128;DHT22;44912;52.754;5.994;2023-04-01T02:32:23;10.80;99.90
59128;DHT22;44912;52.754;5.994;2023-04-01T02:34:50;10.80;99.90
59128;DHT22;44912;52.754;5.994;2023-04-01T02:37:17;10.80;99.90
59128;DHT22;44912;52.754;5.994;2023-04-01T02:39:43;10.80;99.90
59128;DHT22;44912;52.754;5.994;2023-04-01T02:42:09;10.80;99.90
59128;DHT22;44912;52.754;5.994;2023-04-01T02:44:36;10.80;99.90
59128;DHT22;44912;52.754;5.994;2023-04-01T02:47:01;10.80;99.90
59128;DHT22;44912;52.754;5.994;2023-04-01T02:49:27;10.80;99.90
59128;DHT22;44912;52.754;5.994;2023-04-01T02:51:52;10.80;99.90
59128;DHT22;44912;52.754;5.994;2023-04-01T02:54:19;10.80;99.90
59128;DHT22;44912;52.754;5.994;2023-04-01T02:56:44;10.90;99.90
59128;DHT22;44912;52.754;5.994;2023-04-01T02:59:11;10.80;99.90
59128;DHT22;44912;52.754;5.994;2023-04-01T03:01:36;10.80;99.90
59128;DHT22;44912;52.754;5.994;2023-04-01T03:04:02;10.90;99.90
59128;DHT22;44912;52.754;5.994;2023-04-01T03:06:28;10.80;99.90
59128;DHT22;44912;52.754;5.994;2023-04-01T03:08:53;10.80;99.90
59128;DHT22;44912;52.754;5.994;2023-04-01T03:11:19;10.90;99.90
59128;DHT22;44912;52.754;5.994;2023-04-01T03:13:45;10.90;99.90
59128;DHT22;44912;52.754;5.994;2023-04-01T03:16:10;10.90;99.90
59128;DHT22;44912;52.754;5.994;2023-04-01T03:18:36;10.90;99.90
59128;DHT22;44912;52.754;5.994;2023-04-01T03:21:20;10.90;99.90
59128;DHT22;44912;52.754;5.994;2023-04-01T03:23:45;10.90;99.90
59128;DHT22;44912;52.754;5.994;2023-04-01T03:26:11;10.90;99.90
59128;DHT22;44912;52.754;5.994;2023-04-01T03:28:37;10.80;99.90
59128;DHT22;44912;52.754;5.994;2023-04-01T03:31:02;10.80;99.90
59128;DHT22;44912;52.754;5.994;2023-04-01T03:33:28;10.80;99.90
59128;DHT22;44912;52.754;5.994;2023-04-01T03:35:54;10.80;99.90
59128;DHT22;44912;52.754;5.994;2023-04-01T03:38:19;10.80;99.90
59128;DHT22;44912;52.754;5.994;2023-04-01T03:40:45;10.80;99.90
59128;DHT22;44912;52.754;5.994;2023-04-01T03:43:11;10.80;99.90
59128;DHT22;44912;52.754;5.994;2023-04-01T03:45:46;10.80;99.90
59128;DHT22;44912;52.754;5.994;2023-04-01T03:48:13;10.80;99.90
59128;DHT22;44912;52.754;5.994;2023-04-01T03:50:39;10.80;99.90
59128;DHT22;44912;52.754;5.994;2023-04-01T03:53:04;10.80;99.90
59128;DHT22;44912;52.754;5.994;2023-04-01T03:55:30;10.80;99.90
59128;DHT22;44912;52.754;5.994;2023-04-01T03:57:55;10.80;99.90
59128;DHT22;44912;52.754;5.994;2023-04-01T04:00:21;10.80;99.90
59128;DHT22;44912;52.754;5.994;2023-04-01T04:02:46;10.80;99.90
59128;DHT22;44912;52.754;5.994;2023-04-01T04:05:12;10.70;99.90
59128;DHT22;44912;52.754;5.994;2023-04-01T04:07:38;10.70;99.90
59128;DHT22;44912;52.754;5.994;2023-04-01T04:10:05;10.70;99.90
59128;DHT22;44912;52.754;5.994;2023-04-01T04:12:31;10.70;99.90
59128;DHT22;44912;52.754;5.994;2023-04-01T04:14:56;10.70;99.90
59128;DHT22;44912;52.754;5.994;2023-04-01T04:17:22;10.70;99.90
59128;DHT22;44912;52.754;5.994;2023-04-01T04:19:47;10.70;99.90
59128;DHT22;44912;52.754;5.994;2023-04-01T04:22:13;10.70;99.90
59128;DHT22;44912;52.754;5.994;2023-04-01T04:24:38;10.60;99.90
59128;DHT22;44912;52.754;5.994;2023-04-01T04:27:04;10.60;99.90
59128;DHT22;44912;52.754;5.994;2023-04-01T04:29:29;10.60;99.90
59128;DHT22;44912;52.754;5.994;2023-04-01T04:31:55;10.60;99.90
59128;DHT22;44912;52.754;5.994;2023-04-01T04:34:21;10.60;99.90
59128;DHT22;44912;52.754;5.994;2023-04-01T04:36:48;10.60;99.90
59128;DHT22;44912;52.754;5.994;2023-04-01T04:39:14;10.60;99.90
59128;DHT22;44912;52.754;5.994;2023-04-01T04:41:40;10.60;99.90
59128;DHT22;44912;52.754;5.994;2023-04-01T04:44:06;10.60;99.90
59128;DHT22;44912;52.754;5.994;2023-04-01T04:46:32;10.60;99.90
59128;DHT22;44912;52.754;5.994;2023-04-01T04:48:57;10.60;99.90
59128;DHT22;44912;52.754;5.994;2023-04-01T04:51:23;10.60;99.90
59128;DHT22;44912;52.754;5.994;2023-04-01T04:53:49;10.60;99.90
59128;DHT22;44912;52.754;5.994;2023-04-01T04:56:19;10.60;99.90
59128;DHT22;44912;52.754;5.994;2023-04-01T04:58:46;10.60;99.90
59128;DHT22;44912;52.754;5.994;2023-04-01T05:01:16;10.60;99.90
59128;DHT22;44912;52.754;5.994;2023-04-01T05:03:42;10.60;99.90
59128;DHT22;44912;52.754;5.994;2023-04-01T05:06:09;10.60;99.90
59128;DHT22;44912;52.754;5.994;2023-04-01T05:08:35;10.60;99.90
59128;DHT22;44912;52.754;5.994;2023-04-01T05:11:01;10.60;99.90
59128;DHT22;44912;52.754;5.994;2023-04-01T05:13:27;10.60;99.90
59128;DHT22;44912;52.754;5.994;2023-04-01T05:15:53;10.60;99.90
59128;DHT22;44912;52.754;5.994;2023-04-01T05:18:19;10.60;99.90
59128;DHT22;44912;52.754;5.994;2023-04-01T05:20:52;10.60;99.90
59128;DHT22;44912;52.754;5.994;2023-04-01T05:23:18;10.60;99.90
59128;DHT22;44912;52.754;5.994;2023-04-01T05:25:46;10.60;99.90
59128;DHT22;44912;52.754;5.994;2023-04-01T05:28:12;10.60;99.90
59128;DHT22;44912;52.754;5.994;2023-04-01T05:30:40;10.50;99.90
59128;DHT22;44912;52.754;5.994;2023-04-01T05:33:07;10.60;99.90
59128;DHT22;44912;52.754;5.994;2023-04-01T05:35:32;10.50;99.90
59128;DHT22;44912;52.754;5.994;2023-04-01T05:37:58;10.50;99.90
59128;DHT22;44912;52.754;5.994;2023-04-01T05:40:23;10.60;99.90
59128;DHT22;44912;52.754;5.994;2023-04-01T05:42:49;10.60;99.90
59128;DHT22;44912;52.754;5.994;2023-04-01T05:45:14;10.60;99.90
59128;DHT22;44912;52.754;5.994;2023-04-01T05:47:41;10.60;99.90
59128;DHT22;44912;52.754;5.994;2023-04-01T05:50:08;10.60;99.90
59128;DHT22;44912;52.754;5.994;2023-04-01T05:52:35;10.60;99.90
59128;DHT22;44912;52.754;5.994;2023-04-01T05:55:01;10.60;99.90
59128;DHT22;44912;52.754;5.994;2023-04-01T05:57:26;10.60;99.90
59128;DHT22;44912;52.754;5.994;2023-04-01T05:59:52;10.60;99.90
59128;DHT22;44912;52.754;5.994;2023-04-01T06:02:18;10.60;99.90
59128;DHT22;44912;52.754;5.994;2023-04-01T06:04:44;10.60;99.90
59128;DHT22;44912;52.754;5.994;2023-04-01T06:07:19;10.60;99.90
59128;DHT22;44912;52.754;5.994;2023-04-01T06:09:44;10.60;99.90
59128;DHT22;44912;52.754;5.994;2023-04-01T06:12:40;10.60;99.90
59128;DHT22;44912;52.754;5.994;2023-04-01T06:18:00;10.60;99.90
59128;DHT22;44912;52.754;5.994;2023-04-01T06:20:43;10.60;99.90
59128;DHT22;44912;52.754;5.994;2023-04-01T06:23:40;10.60;99.90
59128;DHT22;44912;52.754;5.994;2023-04-01T06:26:28;10.60;99.90
59128;DHT22;44912;52.754;5.994;2023-04-01T06:32:08;10.60;99.90
59128;DHT22;44912;52.754;5.994;2023-04-01T06:34:51;10.70;99.90
59128;DHT22;44912;52.754;5.994;2023-04-01T06:40:57;10.60;99.90
59128;DHT22;44912;52.754;5.994;2023-04-01T06:51:51;10.70;99.90
59128;DHT22;44912;52.754;5.994;2023-04-01T06:54:40;10.70;99.90
59128;DHT22;44912;52.754;5.994;2023-04-01T06:57:23;10.70;99.90
59128;DHT22;44912;52.754;5.994;2023-04-01T06:59:54;10.70;99.90
59128;DHT22;44912;52.754;5.994;2023-04-01T07:02:28;10.80;99.90
59128;DHT22;44912;52.754;5.994;2023-04-01T07:04:56;10.80;99.90
59128;DHT22;44912;52.754;5.994;2023-04-01T07:07:37;10.80;99.90
59128;DHT22;44912;52.754;5.994;2023-04-01T07:10:09;10.80;99.90
59128;DHT22;44912;52.754;5.994;2023-04-01T07:12:54;10.80;99.90
59128;DHT22;44912;52.754;5.994;2023-04-01T07:15:26;10.80;99.90
59128;DHT22;44912;52.754;5.994;2023-04-01T07:17:58;10.90;99.90
59128;DHT22;44912;52.754;5.994;2023-04-01T07:20:27;10.90;99.90
59128;DHT22;44912;52.754;5.994;2023-04-01T07:22:59;10.90;99.90
59128;DHT22;44912;52.754;5.994;2023-04-01T07:25:38;10.90;99.90
59128;DHT22;44912;52.754;5.994;2023-04-01T07:28:13;10.90;99.90
59128;DHT22;44912;52.754;5.994;2023-04-01T07:33:57;10.90;99.90
59128;DHT22;44912;52.754;5.994;2023-04-01T07:39:35;10.90;99.90
59128;DHT22;44912;52.754;5.994;2023-04-01T07:42:11;11.00;99.90
59128;DHT22;44912;52.754;5.994;2023-04-01T07:45:18;10.90;99.90
59128;DHT22;44912;52.754;5.994;2023-04-01T07:47:50;11.00;99.90
59128;DHT22;44912;52.754;5.994;2023-04-01T07:50:29;11.00;99.90
59128;DHT22;44912;52.754;5.994;2023-04-01T07:56:06;11.10;99.90
59128;DHT22;44912;52.754;5.994;2023-04-01T08:04:00;11.10;99.90
59128;DHT22;44912;52.754;5.994;2023-04-01T08:12:00;11.10;99.90
59128;DHT22;44912;52.754;5.994;2023-04-01T08:22:38;11.10;99.90
59128;DHT22;44912;52.754;5.994;2023-04-01T08:25:06;11.10;99.90
59128;DHT22;44912;52.754;5.994;2023-04-01T08:27:43;11.10;99.90
59128;DHT22;44912;52.754;5.994;2023-04-01T08:30:40;11.10;99.90
59128;DHT22;44912;52.754;5.994;2023-04-01T08:33:16;11.00;99.90
59128;DHT22;44912;52.754;5.994;2023-04-01T08:38:44;11.00;99.90
59128;DHT22;44912;52.754;5.994;2023-04-01T08:44:28;11.00;99.90
59128;DHT22;44912;52.754;5.994;2023-04-01T08:47:15;10.90;99.90
59128;DHT22;44912;52.754;5.994;2023-04-01T08:50:26;10.90;99.90
59128;DHT22;44912;52.754;5.994;2023-04-01T08:53:12;10.90;99.90
59128;DHT22;44912;52.754;5.994;2023-04-01T08:55:56;10.80;99.90
59128;DHT22;44912;52.754;5.994;2023-04-01T09:07:12;10.80;99.90
59128;DHT22;44912;52.754;5.994;2023-04-01T09:10:05;10.80;99.90
59128;DHT22;44912;52.754;5.994;2023-04-01T09:12:51;10.80;99.90
59128;DHT22;44912;52.754;5.994;2023-04-01T09:16:04;10.80;99.90
59128;DHT22;44912;52.754;5.994;2023-04-01T09:21:45;10.90;99.90
59128;DHT22;44912;52.754;5.994;2023-04-01T09:24:36;10.90;99.90
59128;DHT22;44912;52.754;5.994;2023-04-01T09:27:49;10.90;99.90
59128;DHT22;44912;52.754;5.994;2023-04-01T09:39:46;11.00;99.90
59128;DHT22;44912;52.754;5.994;2023-04-01T09:48:04;11.00;99.90
59128;DHT22;44912;52.754;5.994;2023-04-01T09:50:48;11.10;99.90
59128;DHT22;44912;52.754;5.994;2023-04-01T09:56:34;11.20;99.90
59128;DHT22;44912;52.754;5.994;2023-04-01T10:05:12;11.30;99.90
59128;DHT22;44912;52.754;5.994;2023-04-01T10:10:28;11.30;99.90
59128;DHT22;44912;52.754;5.994;2023-04-01T10:15:51;11.50;99.90
59128;DHT22;44912;52.754;5.994;2023-04-01T10:37:45;12.00;99.90
59128;DHT22;44912;52.754;5.994;2023-04-01T10:40:30;12.10;99.90
59128;DHT22;44912;52.754;5.994;2023-04-01T10:43:31;12.00;99.90
59128;DHT22;44912;52.754;5.994;2023-04-01T10:46:32;12.00;99.90
59128;DHT22;44912;52.754;5.994;2023-04-01T10:49:29;12.10;99.90
59128;DHT22;44912;52.754;5.994;2023-04-01T10:55:20;12.10;99.90
59128;DHT22;44912;52.754;5.994;2023-04-01T10:58:25;12.20;99.90
59128;DHT22;44912;52.754;5.994;2023-04-01T11:15:27;12.60;99.90
59128;DHT22;44912;52.754;5.994;2023-04-01T11:20:56;12.70;99.90
59128;DHT22;44912;52.754;5.994;2023-04-01T11:23:49;12.80;99.90
59128;DHT22;44912;52.754;5.994;2023-04-01T11:26:32;12.90;99.90
59128;DHT22;44912;52.754;5.994;2023-04-01T11:38:19;12.40;99.90
59128;DHT22;44912;52.754;5.994;2023-04-01T11:43:40;12.20;99.90
59128;DHT22;44912;52.754;5.994;2023-04-01T11:46:15;12.20;99.90
59128;DHT22;44912;52.754;5.994;2023-04-01T11:49:03;12.20;99.90
59128;DHT22;44912;52.754;5.994;2023-04-01T11:54:13;12.00;99.90
59128;DHT22;44912;52.754;5.994;2023-04-01T12:05:31;11.90;99.90
59128;DHT22;44912;52.754;5.994;2023-04-01T12:13:35;12.00;99.90
59128;DHT22;44912;52.754;5.994;2023-04-01T12:19:26;12.20;99.90
59128;DHT22;44912;52.754;5.994;2023-04-01T12:22:19;12.10;99.90
59128;DHT22;44912;52.754;5.994;2023-04-01T12:30:52;11.90;99.90
59128;DHT22;44912;52.754;5.994;2023-04-01T12:36:32;11.70;99.90
59128;DHT22;44912;52.754;5.994;2023-04-01T12:39:22;11.70;99.90
59128;DHT22;44912;52.754;5.994;2023-04-01T12:42:31;11.70;99.90
59128;DHT22;44912;52.754;5.994;2023-04-01T12:47:51;11.70;99.90
59128;DHT22;44912;52.754;5.994;2023-04-01T12:55:59;11.60;99.90
59128;DHT22;44912;52.754;5.994;2023-04-01T13:02:01;11.60;99.90
59128;DHT22;44912;52.754;5.994;2023-04-01T13:09:59;11.60;99.90
59128;DHT22;44912;52.754;5.994;2023-04-01T13:15:32;11.60;99.90
59128;DHT22;44912;52.754;5.994;2023-04-01T13:20:54;11.60;99.90
59128;DHT22;44912;52.754;5.994;2023-04-01T13:26:27;11.60;99.90
59128;DHT22;44912;52.754;5.994;2023-04-01T13:29:13;11.50;99.90
59128;DHT22;44912;52.754;5.994;2023-04-01T13:32:05;11.50;99.90
59128;DHT22;44912;52.754;5.994;2023-04-01T13:35:06;11.40;99.90
59128;DHT22;44912;52.754;5.994;2023-04-01T13:43:26;11.30;99.90
59128;DHT22;44912;52.754;5.994;2023-04-01T13:46:08;11.30;99.90
59128;DHT22;44912;52.754;5.994;2023-04-01T13:54:10;11.30;99.90
59128;DHT22;44912;52.754;5.994;2023-04-01T13:56:48;11.30;99.90
59128;DHT22;44912;52.754;5.994;2023-04-01T14:00:36;11.20;99.90
59128;DHT22;44912;52.754;5.994;2023-04-01T14:05:55;11.20;99.90
59128;DHT22;44912;52.754;5.994;2023-04-01T14:14:09;11.00;99.90
59128;DHT22;44912;52.754;5.994;2023-04-01T14:17:03;10.90;99.90
59128;DHT22;44912;52.754;5.994;2023-04-01T14:22:56;10.90;99.90
59128;DHT22;44912;52.754;5.994;2023-04-01T14:25:46;10.90;99.90
59128;DHT22;44912;52.754;5.994;2023-04-01T14:31:27;10.80;99.90
59128;DHT22;44912;52.754;5.994;2023-04-01T14:36:50;10.80;99.90
59128;DHT22;44912;52.754;5.994;2023-04-01T14:39:53;10.80;99.90
59128;DHT22;44912;52.754;5.994;2023-04-01T14:48:07;10.80;99.90
59128;DHT22;44912;52.754;5.994;2023-04-01T14:50:49;10.70;99.90
59128;DHT22;44912;52.754;5.994;2023-04-01T14:58:18;10.60;99.90
59128;DHT22;44912;52.754;5.994;2023-04-01T15:09:24;10.40;99.90
59128;DHT22;44912;52.754;5.994;2023-04-01T15:12:02;10.30;99.90
59128;DHT22;44912;52.754;5.994;2023-04-01T15:14:34;10.30;99.90
59128;DHT22;44912;52.754;5.994;2023-04-01T15:20:31;10.20;99.90
59128;DHT22;44912;52.754;5.994;2023-04-01T15:26:12;10.10;99.90
59128;DHT22;44912;52.754;5.994;2023-04-01T15:39:57;10.30;99.90
59128;DHT22;44912;52.754;5.994;2023-04-01T15:50:43;10.20;99.90
59128;DHT22;44912;52.754;5.994;2023-04-01T16:02:34;9.90;99.90
59128;DHT22;44912;52.754;5.994;2023-04-01T16:05:41;9.90;99.90
59128;DHT22;44912;52.754;5.994;2023-04-01T16:11:12;9.90;99.90
59128;DHT22;44912;52.754;5.994;2023-04-01T16:13:48;9.90;99.90
59128;DHT22;44912;52.754;5.994;2023-04-01T16:19:37;9.80;99.90
59128;DHT22;44912;52.754;5.994;2023-04-01T16:22:17;9.70;99.90
59128;DHT22;44912;52.754;5.994;2023-04-01T16:30:44;9.60;99.90
59128;DHT22;44912;52.754;5.994;2023-04-01T16:36:45;9.50;99.90
59128;DHT22;44912;52.754;5.994;2023-04-01T16:42:35;9.40;99.90
59128;DHT22;44912;52.754;5.994;2023-04-01T16:47:40;9.30;99.90
59128;DHT22;44912;52.754;5.994;2023-04-01T16:50:14;9.30;99.90
59128;DHT22;44912;52.754;5.994;2023-04-01T16:52:46;9.20;99.90
59128;DHT22;44912;52.754;5.994;2023-04-01T16:55:19;9.20;99.90
59128;DHT22;44912;52.754;5.994;2023-04-01T16:57:57;9.20;99.90
59128;DHT22;44912;52.754;5.994;2023-04-01T17:00:38;9.20;99.90
59128;DHT22;44912;52.754;5.994;2023-04-01T17:05:42;9.10;99.90
59128;DHT22;44912;52.754;5.994;2023-04-01T17:08:50;9.10;99.90
59128;DHT22;44912;52.754;5.994;2023-04-01T17:11:39;9.00;99.90
59128;DHT22;44912;52.754;5.994;2023-04-01T17:14:17;9.00;99.90
59128;DHT22;44912;52.754;5.994;2023-04-01T17:33:45;8.80;99.90
59128;DHT22;44912;52.754;5.994;2023-04-01T17:36:36;8.70;99.90
59128;DHT22;44912;52.754;5.994;2023-04-01T17:39:42;8.70;99.90
59128;DHT22;44912;52.754;5.994;2023-04-01T17:42:16;8.60;99.90
59128;DHT22;44912;52.754;5.994;2023-04-01T17:47:29;8.60;99.90
59128;DHT22;44912;52.754;5.994;2023-04-01T17:52:37;8.50;99.90
59128;DHT22;44912;52.754;5.994;2023-04-01T17:55:38;8.50;99.90
59128;DHT22;44912;52.754;5.994;2023-04-01T18:07:29;8.40;99.90
59128;DHT22;44912;52.754;5.994;2023-04-01T18:15:25;8.40;99.90
59128;DHT22;44912;52.754;5.994;2023-04-01T18:22:08;8.30;99.90
59128;DHT22;44912;52.754;5.994;2023-04-01T18:24:00;8.30;99.90
59128;DHT22;44912;52.754;5.994;2023-04-01T18:26:33;8.30;99.90
59128;DHT22;44912;52.754;5.994;2023-04-01T18:29:11;8.20;99.90
59128;DHT22;44912;52.754;5.994;2023-04-01T18:31:43;8.20;99.90
59128;DHT22;44912;52.754;5.994;2023-04-01T18:37:34;8.10;99.90
59128;DHT22;44912;52.754;5.994;2023-04-01T18:40:18;8.10;99.90
59128;DHT22;44912;52.754;5.994;2023-04-01T18:45:57;8.00;99.90
59128;DHT22;44912;52.754;5.994;2023-04-01T18:48:52;8.00;99.90
59128;DHT22;44912;52.754;5.994;2023-04-01T18:54:33;7.90;99.90
59128;DHT22;44912;52.754;5.994;2023-04-01T18:57:14;7.80;99.90
59128;DHT22;44912;52.754;5.994;2023-04-01T19:00:04;7.80;99.90
59128;DHT22;44912;52.754;5.994;2023-04-01T19:05:13;7.70;99.90
59128;DHT22;44912;52.754;5.994;2023-04-01T19:10:15;7.70;99.90
59128;DHT22;44912;52.754;5.994;2023-04-01T19:18:49;7.70;99.90
59128;DHT22;44912;52.754;5.994;2023-04-01T19:21:36;7.70;99.90
59128;DHT22;44912;52.754;5.994;2023-04-01T19:24:25;7.70;99.90
59128;DHT22;44912;52.754;5.994;2023-04-01T19:32:52;7.60;99.90
59128;DHT22;44912;52.754;5.994;2023-04-01T19:35:42;7.60;99.90
59128;DHT22;44912;52.754;5.994;2023-04-01T19:40:47;7.50;99.90
59128;DHT22;44912;52.754;5.994;2023-04-01T19:46:56;7.60;99.90
59128;DHT22;44912;52.754;5.994;2023-04-01T19:51:58;7.50;99.90
59128;DHT22;44912;52.754;5.994;2023-04-01T19:54:46;7.50;99.90
59128;DHT22;44912;52.754;5.994;2023-04-01T19:57:43;7.50;99.90
59128;DHT22;44912;52.754;5.994;2023-04-01T20:00:34;7.40;99.90
59128;DHT22;44912;52.754;5.994;2023-04-01T20:03:15;7.40;99.90
59128;DHT22;44912;52.754;5.994;2023-04-01T20:05:46;7.40;99.90
59128;DHT22;44912;52.754;5.994;2023-04-01T20:08:22;7.30;99.90
59128;DHT22;44912;52.754;5.994;2023-04-01T20:19:40;7.30;99.90
59128;DHT22;44912;52.754;5.994;2023-04-01T20:25:15;7.30;99.90
59128;DHT22;44912;52.754;5.994;2023-04-01T20:28:04;7.30;99.90
59128;DHT22;44912;52.754;5.994;2023-04-01T20:40:08;7.20;99.90
59128;DHT22;44912;52.754;5.994;2023-04-01T20:45:35;7.20;99.90
59128;DHT22;44912;52.754;5.994;2023-04-01T20:50:52;7.20;99.90
59128;DHT22;44912;52.754;5.994;2023-04-01T20:53:49;7.10;99.90
59128;DHT22;44912;52.754;5.994;2023-04-01T21:29:26;6.80;99.90
59128;DHT22;44912;52.754;5.994;2023-04-01T21:38:33;6.80;99.90
59128;DHT22;44912;52.754;5.994;2023-04-01T21:41:41;6.70;99.90
59128;DHT22;44912;52.754;5.994;2023-04-01T21:47:40;6.70;99.90
59128;DHT22;44912;52.754;5.994;2023-04-01T21:50:42;6.70;99.90
59128;DHT22;44912;52.754;5.994;2023-04-01T22:07:20;6.60;99.90
59128;DHT22;44912;52.754;5.994;2023-04-01T22:18:32;6.50;99.90
59128;DHT22;44912;52.754;5.994;2023-04-01T22:21:45;6.50;99.90
59128;DHT22;44912;52.754;5.994;2023-04-01T22:27:03;6.40;99.90
59128;DHT22;44912;52.754;5.994;2023-04-01T22:32:28;6.40;99.90
59128;DHT22;44912;52.754;5.994;2023-04-01T22:37:58;6.50;99.90
59128;DHT22;44912;52.754;5.994;2023-04-01T22:40:39;6.40;99.90
59128;DHT22;44912;52.754;5.994;2023-04-01T22:43:10;6.50;99.90
59128;DHT22;44912;52.754;5.994;2023-04-01T22:46:01;6.40;99.90
59128;DHT22;44912;52.754;5.994;2023-04-01T22:48:45;6.40;99.90
59128;DHT22;44912;52.754;5.994;2023-04-01T22:56:44;6.30;99.90
59128;DHT22;44912;52.754;5.994;2023-04-01T22:59:26;6.30;99.90
59128;DHT22;44912;52.754;5.994;2023-04-01T23:01:57;6.30;99.90
59128;DHT22;44912;52.754;5.994;2023-04-01T23:04:33;6.30;99.90
59128;DHT22;44912;52.754;5.994;2023-04-01T23:07:05;6.30;99.90
59128;DHT22;44912;52.754;5.994;2023-04-01T23:09:42;6.30;99.90
59128;DHT22;44912;52.754;5.994;2023-04-01T23:12:11;6.30;99.90
59128;DHT22;44912;52.754;5.994;2023-04-01T23:14:43;6.30;99.90
59128;DHT22;44912;52.754;5.994;2023-04-01T23:23:32;6.30;99.90
59128;DHT22;44912;52.754;5.994;2023-04-01T23:28:55;6.30;99.90
59128;DHT22;44912;52.754;5.994;2023-04-01T23:31:40;6.30;99.90
59128;DHT22;44912;52.754;5.994;2023-04-01T23:36:52;6.20;99.90
59128;DHT22;44912;52.754;5.994;2023-04-01T23:39:34;6.20;99.90
59128;DHT22;44912;52.754;5.994;2023-04-01T23:44:48;6.10;99.90
59128;DHT22;44912;52.754;5.994;2023-04-01T23:47:32;6.10;99.90
59128;DHT22;44912;52.754;5.994;2023-04-01T23:50:01;6.10;99.90
59128;DHT22;44912;52.754;5.994;2023-04-01T23:52:39;6.10;99.90
59128;DHT22;44912;52.754;5.994;2023-04-01T23:55:15;6.00;99.90
59128;DHT22;44912;52.754;5.994;2023-04-01T23:58:12;6.00;99.90
